Terminal Aerodrome Forecast
Issued by NWS

Home | Current Version | Previous Version | Text Only | Print | Product List | Glossary On
Versions: 1 2 3 4 5 6 7 8 9 10 11 12 13 14 15
000
FTUS43 KDDC 171741
TAFHYS
TAF
KHYS 171741Z 1718/1818 18013KT P6SM FEW150
     FM180300 16009KT P6SM SCT200 PROB30 1803/1806 -TSRA BKN040CB
     FM180900 18008KT P6SM SCT200 WS020/20035KT
     FM181300 18011KT P6SM FEW200=

USA.gov is the U.S. government's official web portal to all federal, state and local government web resources and services.